Terminal Aerodrome Forecast
Issued by NWS Grand Rapids, MI

Home | Current Version | Previous Version | Text Only | Print | Product List | Glossary On
Versions: 1 2 3 4 5 6 7 8 9 10 11 12 13 14 15 16 17 18 19 20 21 22
000
FTUS43 KGRR 271700 RRA
TAFGRR
TAF
KGRR 271755Z 2718/2818 31010G15KT 4SM -SHSN BKN020
     FM272200 33010KT P6SM BKN035
     FM281600 11005KT 6SM -SN BKN030=

USA.gov is the U.S. government's official web portal to all federal, state and local government web resources and services.